Aérodrome :
LOGIN :

S'inscrire | Disclaimer

   EN    FR    IT 

 










Légende :    VFR   VFR Marginal   IFR   IFR Intensif   IFR Très Intensif
Visi : 
Plafond : 
>= 8 km
>= 3000ft
5 à 8 km
1000 à 3000 ft
1500m à 5 km
500 à 1000 ft
800 à 1500m
200 à 500 ft
< 800m
< 200 ft
Symboles :   Orages  Brouillard  Fortes neiges  Fortes précipitations  Vent > 20 kt
SIGMETs :   Divers  Orages  Givrage  Turbulence  Onde Orograph.  Cendres Volcan.






- Altitude de l'aérodrome : 123 ft
- Code IATA : BLQ


LIPE - Bologna Guglielmo Marconi

DERNIER METAR :
  • 140250Z 23003KT 4500 BR NSC 16/14 Q1023

METARs EXPIRÉS :
  • 140220Z 21003KT 150V240 2500 BR NSC 16/15 Q1023
  • 140150Z 25003KT 2500 NSC 16/15 Q1023
  • 140120Z 24004KT 2500 BR NSC 16/14 Q1023
  • 140050Z 22005KT 2500 BR NSC 16/14 Q1023
  • 140020Z 25004KT 2500 BR NSC 15/14 Q1023

TAF TAF LIPE
Valide du 14 à 00h jusqu'au 15 à 00h UTC


132300Z 1400/1424 VRB05KT 3000 BR NSC
TEMPO 1400/1409 1500
BECMG 1410/1412 5000



MET'MAP, la Météo Aéronautique d'un coup d'oeil ! - Copyright ORBIFLY Décembre 2007 - Disclaimer

ORBIFLY MET'MAP TEAM :

Programmation & Développement : Alexandra Zaïnal
Conception & Développement : Baudouin d'Aumeries
Co-Programmation & Développement : Marc-Olivier Méhu
Soutien technique & logistique : Manuel Goepfert

Contact : metmap@orbifly.com




SOURCES & CREDITS :

   NOAA